»·PEaware :: N508DB 8W5-KYKM

N508DB :: 8W5-KYKM

FLIGHT INFORMATION

Flight Status: Arrived
Operator: Privately registered:
United States
More flights under this callsign
Pilot: Chuck O. (4337)
Aircraft: Unknown
(LEG2)
More flights by this aircraft type
Origin: 8W5 Apex Airpark
United States
Destination: KYKM Yakima Air Term/Mcallister
United States
More flights between these airports :: More routes between these airports
Route: +BANDR YKM
File this flight plan on PilotEdge
Remarks: ABC WA Leg 24
Altitude:
(Current/Filed)
11,000ft
Speed:
(Current/Filed)
220kts
Departed: 29-Jun-20 05:23 PM
Arrived: 29-Jun-20 05:58 PM
Distance/Time
Traveled:
111nm/0:35
Distance/Time
To Go:
Arrived

Flight Plot

Page will automatically refresh every two minutes.


Map Options




Map Legend


Flown Route
Filed Route
Departure Airport
Arrival Airport
Navaid (VOR, NDB)
Fix

Horizontal Profiles

Position Reports

Time Latitude Longitude Heading Altitude Ground
Speed
29-Jun-20 17:06 47.658071 -122.731821 40 505ft 0kts
29-Jun-20 17:07 47.658074 -122.731818 40 505ft 0kts
29-Jun-20 17:08 47.658092 -122.731795 40 505ft 1kts
29-Jun-20 17:09 47.659514 -122.732321 9 505ft 6kts
29-Jun-20 17:10 47.659690 -122.732261 349 505ft 0kts
29-Jun-20 17:11 47.659692 -122.732262 349 505ft 0kts
29-Jun-20 17:12 47.659693 -122.732262 349 505ft 0kts
29-Jun-20 17:13 47.659694 -122.732263 349 505ft 0kts
29-Jun-20 17:14 47.659695 -122.732263 349 505ft 0kts
29-Jun-20 17:15 47.659696 -122.732263 349 505ft 0kts
29-Jun-20 17:16 47.659698 -122.732264 349 505ft 0kts
29-Jun-20 17:17 47.659699 -122.732264 349 505ft 0kts
29-Jun-20 17:18 47.659700 -122.732264 349 505ft 0kts
29-Jun-20 17:19 47.659701 -122.732265 349 505ft 0kts
29-Jun-20 17:20 47.659702 -122.732265 349 505ft 0kts
29-Jun-20 17:21 47.659877 -122.732413 216 505ft 3kts
29-Jun-20 17:22 47.637030 -122.734182 171 1228ft 120kts
29-Jun-20 17:23 47.607619 -122.706113 107 2169ft 177kts
29-Jun-20 17:24 47.603000 -122.635122 110 1947ft 212kts
29-Jun-20 17:25 47.578336 -122.554829 116 2019ft 215kts
29-Jun-20 17:26 47.556088 -122.480402 115 3195ft 174kts
29-Jun-20 17:27 47.538628 -122.421300 112 4766ft 151kts
29-Jun-20 17:28 47.521175 -122.362337 111 6037ft 162kts
29-Jun-20 17:29 47.502527 -122.299584 111 7242ft 169kts
29-Jun-20 17:30 47.483596 -122.236023 110 8434ft 167kts
29-Jun-20 17:31 47.465305 -122.174726 109 9589ft 160kts
29-Jun-20 17:32 47.445924 -122.109939 110 10233ft 182kts
29-Jun-20 17:33 47.424683 -122.039134 109 10848ft 194kts
29-Jun-20 17:34 47.401561 -121.962215 110 11010ft 217kts
29-Jun-20 17:35 47.376123 -121.878079 110 11010ft 229kts
29-Jun-20 17:36 47.349751 -121.791127 110 11014ft 233kts
29-Jun-20 17:37 47.323063 -121.703386 110 11018ft 235kts
29-Jun-20 17:38 47.296246 -121.615513 110 11025ft 235kts
29-Jun-20 17:39 47.269222 -121.527259 110 10987ft 236kts
29-Jun-20 17:40 47.242349 -121.439853 127 10999ft 238kts
29-Jun-20 17:41 47.195299 -121.369870 132 10991ft 240kts
29-Jun-20 17:42 47.148179 -121.300019 131 10981ft 240kts
29-Jun-20 17:43 47.101410 -121.229923 131 10963ft 241kts
29-Jun-20 17:44 47.054434 -121.159531 131 10936ft 241kts
29-Jun-20 17:45 47.007273 -121.089020 131 10901ft 241kts
29-Jun-20 17:46 46.960173 -121.018788 131 10872ft 241kts
29-Jun-20 17:47 46.912750 -120.948318 131 10607ft 247kts
29-Jun-20 17:48 46.864676 -120.877056 132 9940ft 241kts
29-Jun-20 17:49 46.816333 -120.810011 135 8790ft 238kts
29-Jun-20 17:50 46.769945 -120.743450 132 7842ft 221kts
29-Jun-20 17:51 46.731653 -120.684375 131 7792ft 182kts
29-Jun-20 17:52 46.698273 -120.633432 131 7788ft 169kts
29-Jun-20 17:53 46.666057 -120.584584 131 7782ft 165kts
29-Jun-20 17:54 46.630976 -120.531235 135 6336ft 197kts
29-Jun-20 17:55 46.581900 -120.495378 167 2514ft 183kts
29-Jun-20 17:56 46.559158 -120.508415 300 1544ft 111kts
29-Jun-20 17:57 46.566365 -120.534977 292 1058ft 29kts
29-Jun-20 17:58 46.569044 -120.538021 73 1058ft 23kts
29-Jun-20 17:59 46.569800 -120.537677 261 1058ft 0kts
29-Jun-20 18:00 46.569800 -120.537677 261 1058ft 0kts
29-Jun-20 18:01 46.569800 -120.537677 261 1058ft 0kts

Navigation Log

Ident Type
Flight plan parsing failed, navigation log unavailable